sensor_id;sensor_type;location;lat;lon;timestamp;temperature;humidity
78366;HTU21D;67641;59.864;30.464;2023-12-14T00:01:33;13.78;51.95
78366;HTU21D;67641;59.864;30.464;2023-12-14T00:04:00;13.78;52.52
78366;HTU21D;67641;59.864;30.464;2023-12-14T00:06:27;13.76;52.71
78366;HTU21D;67641;59.864;30.464;2023-12-14T00:08:53;13.70;51.93
78366;HTU21D;67641;59.864;30.464;2023-12-14T00:11:20;13.71;51.91
78366;HTU21D;67641;59.864;30.464;2023-12-14T00:13:46;13.75;52.31
78366;HTU21D;67641;59.864;30.464;2023-12-14T00:16:13;13.75;52.68
78366;HTU21D;67641;59.864;30.464;2023-12-14T00:18:39;13.73;53.18
78366;HTU21D;67641;59.864;30.464;2023-12-14T00:21:06;13.67;53.90
78366;HTU21D;67641;59.864;30.464;2023-12-14T00:23:36;13.61;54.26
78366;HTU21D;67641;59.864;30.464;2023-12-14T00:26:03;13.60;54.46
78366;HTU21D;67641;59.864;30.464;2023-12-14T00:28:30;13.58;54.20
78366;HTU21D;67641;59.864;30.464;2023-12-14T00:30:56;13.60;54.49
78366;HTU21D;67641;59.864;30.464;2023-12-14T00:33:23;13.55;54.07
78366;HTU21D;67641;59.864;30.464;2023-12-14T00:35:49;13.58;53.79
78366;HTU21D;67641;59.864;30.464;2023-12-14T00:38:17;13.54;52.85
78366;HTU21D;67641;59.864;30.464;2023-12-14T00:40:43;13.56;53.92
78366;HTU21D;67641;59.864;30.464;2023-12-14T00:43:10;13.58;54.55
78366;HTU21D;67641;59.864;30.464;2023-12-14T00:45:37;13.58;55.08
78366;HTU21D;67641;59.864;30.464;2023-12-14T00:48:03;13.54;56.61
78366;HTU21D;67641;59.864;30.464;2023-12-14T00:50:30;13.52;57.03
78366;HTU21D;67641;59.864;30.464;2023-12-14T00:52:57;13.51;57.28
78366;HTU21D;67641;59.864;30.464;2023-12-14T00:55:23;13.52;57.51
78366;HTU21D;67641;59.864;30.464;2023-12-14T00:57:50;13.54;58.00
78366;HTU21D;67641;59.864;30.464;2023-12-14T01:00:16;13.54;58.16
78366;HTU21D;67641;59.864;30.464;2023-12-14T01:02:43;13.54;58.84
78366;HTU21D;67641;59.864;30.464;2023-12-14T01:05:10;13.52;59.01
78366;HTU21D;67641;59.864;30.464;2023-12-14T01:07:36;13.51;58.88
78366;HTU21D;67641;59.864;30.464;2023-12-14T01:10:03;13.49;59.67
78366;HTU21D;67641;59.864;30.464;2023-12-14T01:12:30;13.49;60.63
78366;HTU21D;67641;59.864;30.464;2023-12-14T01:14:57;13.52;61.08
78366;HTU21D;67641;59.864;30.464;2023-12-14T01:17:24;13.52;61.70
78366;HTU21D;67641;59.864;30.464;2023-12-14T01:19:51;13.49;64.07
78366;HTU21D;67641;59.864;30.464;2023-12-14T01:22:20;13.48;64.98
78366;HTU21D;67641;59.864;30.464;2023-12-14T01:24:47;13.46;65.67
78366;HTU21D;67641;59.864;30.464;2023-12-14T01:27:13;13.46;65.69
78366;HTU21D;67641;59.864;30.464;2023-12-14T01:29:40;13.45;66.28
78366;HTU21D;67641;59.864;30.464;2023-12-14T01:32:07;13.37;66.69
78366;HTU21D;67641;59.864;30.464;2023-12-14T01:34:33;13.38;66.87
78366;HTU21D;67641;59.864;30.464;2023-12-14T01:37:00;13.43;66.69
78366;HTU21D;67641;59.864;30.464;2023-12-14T01:39:26;13.45;66.14
78366;HTU21D;67641;59.864;30.464;2023-12-14T01:41:53;13.46;66.56
78366;HTU21D;67641;59.864;30.464;2023-12-14T01:44:19;13.47;66.40
78366;HTU21D;67641;59.864;30.464;2023-12-14T01:46:46;13.48;65.80
78366;HTU21D;67641;59.864;30.464;2023-12-14T01:49:12;13.51;65.72
78366;HTU21D;67641;59.864;30.464;2023-12-14T01:51:39;13.52;66.22
78366;HTU21D;67641;59.864;30.464;2023-12-14T01:54:06;13.50;65.74
78366;HTU21D;67641;59.864;30.464;2023-12-14T01:56:32;13.52;66.00
78366;HTU21D;67641;59.864;30.464;2023-12-14T01:58:59;13.51;65.47
78366;HTU21D;67641;59.864;30.464;2023-12-14T02:01:45;13.53;65.58
78366;HTU21D;67641;59.864;30.464;2023-12-14T02:04:12;13.51;65.14
78366;HTU21D;67641;59.864;30.464;2023-12-14T02:06:39;13.52;64.72
78366;HTU21D;67641;59.864;30.464;2023-12-14T02:09:06;13.52;63.84
78366;HTU21D;67641;59.864;30.464;2023-12-14T02:11:33;13.50;62.15
78366;HTU21D;67641;59.864;30.464;2023-12-14T02:14:06;13.47;61.59
78366;HTU21D;67641;59.864;30.464;2023-12-14T02:16:34;13.43;61.41
78366;HTU21D;67641;59.864;30.464;2023-12-14T02:19:01;13.44;61.42
78366;HTU21D;67641;59.864;30.464;2023-12-14T02:21:28;13.39;62.21
78366;HTU21D;67641;59.864;30.464;2023-12-14T02:23:54;13.39;62.16
78366;HTU21D;67641;59.864;30.464;2023-12-14T02:26:21;13.39;62.47
78366;HTU21D;67641;59.864;30.464;2023-12-14T02:28:48;13.39;62.68
78366;HTU21D;67641;59.864;30.464;2023-12-14T02:31:15;13.39;63.28
78366;HTU21D;67641;59.864;30.464;2023-12-14T02:33:41;13.39;63.68
78366;HTU21D;67641;59.864;30.464;2023-12-14T02:36:08;13.40;63.95
78366;HTU21D;67641;59.864;30.464;2023-12-14T02:38:34;13.41;64.13
78366;HTU21D;67641;59.864;30.464;2023-12-14T02:41:01;13.40;64.42
78366;HTU21D;67641;59.864;30.464;2023-12-14T02:43:27;13.41;64.56
78366;HTU21D;67641;59.864;30.464;2023-12-14T02:45:54;13.43;64.85
78366;HTU21D;67641;59.864;30.464;2023-12-14T02:48:28;13.40;65.19
78366;HTU21D;67641;59.864;30.464;2023-12-14T02:50:55;13.40;65.66
78366;HTU21D;67641;59.864;30.464;2023-12-14T02:53:22;13.44;65.95
78366;HTU21D;67641;59.864;30.464;2023-12-14T02:55:48;13.44;66.43
78366;HTU21D;67641;59.864;30.464;2023-12-14T02:58:15;13.46;67.17
78366;HTU21D;67641;59.864;30.464;2023-12-14T03:00:41;13.47;68.16
78366;HTU21D;67641;59.864;30.464;2023-12-14T03:03:08;13.47;68.18
78366;HTU21D;67641;59.864;30.464;2023-12-14T03:05:34;13.48;68.49
78366;HTU21D;67641;59.864;30.464;2023-12-14T03:08:00;13.47;68.71
78366;HTU21D;67641;59.864;30.464;2023-12-14T03:10:27;13.47;69.26
78366;HTU21D;67641;59.864;30.464;2023-12-14T03:12:53;13.46;69.44
78366;HTU21D;67641;59.864;30.464;2023-12-14T03:15:20;13.47;69.49
78366;HTU21D;67641;59.864;30.464;2023-12-14T03:17:49;13.46;70.01
78366;HTU21D;67641;59.864;30.464;2023-12-14T03:20:16;13.48;70.52
78366;HTU21D;67641;59.864;30.464;2023-12-14T03:22:43;13.48;71.50
78366;HTU21D;67641;59.864;30.464;2023-12-14T03:25:09;13.46;72.33
78366;HTU21D;67641;59.864;30.464;2023-12-14T03:27:36;13.44;72.62
78366;HTU21D;67641;59.864;30.464;2023-12-14T03:30:06;13.43;73.09
78366;HTU21D;67641;59.864;30.464;2023-12-14T03:32:36;13.40;72.93
78366;HTU21D;67641;59.864;30.464;2023-12-14T03:35:03;13.37;72.99
78366;HTU21D;67641;59.864;30.464;2023-12-14T03:37:29;13.37;73.01
78366;HTU21D;67641;59.864;30.464;2023-12-14T03:39:56;13.35;73.29
78366;HTU21D;67641;59.864;30.464;2023-12-14T03:42:22;13.34;73.64
78366;HTU21D;67641;59.864;30.464;2023-12-14T03:44:49;13.30;73.73
78366;HTU21D;67641;59.864;30.464;2023-12-14T03:47:15;13.29;73.35
78366;HTU21D;67641;59.864;30.464;2023-12-14T03:49:42;13.25;73.22
78366;HTU21D;67641;59.864;30.464;2023-12-14T03:52:09;13.24;73.39
78366;HTU21D;67641;59.864;30.464;2023-12-14T03:54:35;13.25;73.43
78366;HTU21D;67641;59.864;30.464;2023-12-14T03:57:02;13.26;73.02
78366;HTU21D;67641;59.864;30.464;2023-12-14T03:59:29;13.24;72.29
78366;HTU21D;67641;59.864;30.464;2023-12-14T04:01:55;13.24;71.74
78366;HTU21D;67641;59.864;30.464;2023-12-14T04:04:22;13.24;71.48
78366;HTU21D;67641;59.864;30.464;2023-12-14T04:06:48;13.24;71.13
78366;HTU21D;67641;59.864;30.464;2023-12-14T04:09:15;13.26;71.03
78366;HTU21D;67641;59.864;30.464;2023-12-14T04:11:41;13.29;71.01
78366;HTU21D;67641;59.864;30.464;2023-12-14T04:14:07;13.29;71.03
78366;HTU21D;67641;59.864;30.464;2023-12-14T04:16:36;13.31;71.23
78366;HTU21D;67641;59.864;30.464;2023-12-14T04:19:02;13.31;71.29
78366;HTU21D;67641;59.864;30.464;2023-12-14T04:21:29;13.31;71.46
78366;HTU21D;67641;59.864;30.464;2023-12-14T04:23:56;13.27;71.64
78366;HTU21D;67641;59.864;30.464;2023-12-14T04:26:23;13.25;71.44
78366;HTU21D;67641;59.864;30.464;2023-12-14T04:28:50;13.26;71.30
78366;HTU21D;67641;59.864;30.464;2023-12-14T04:31:17;13.24;71.22
78366;HTU21D;67641;59.864;30.464;2023-12-14T04:33:43;13.24;71.06
78366;HTU21D;67641;59.864;30.464;2023-12-14T04:36:10;13.25;70.83
78366;HTU21D;67641;59.864;30.464;2023-12-14T04:38:36;13.26;70.93
78366;HTU21D;67641;59.864;30.464;2023-12-14T04:41:03;13.27;70.80
78366;HTU21D;67641;59.864;30.464;2023-12-14T04:43:30;13.25;70.99
78366;HTU21D;67641;59.864;30.464;2023-12-14T04:45:58;13.26;71.04
78366;HTU21D;67641;59.864;30.464;2023-12-14T04:48:24;13.27;70.68
78366;HTU21D;67641;59.864;30.464;2023-12-14T04:50:51;13.25;70.38
78366;HTU21D;67641;59.864;30.464;2023-12-14T04:53:17;13.23;70.26
78366;HTU21D;67641;59.864;30.464;2023-12-14T04:55:44;13.24;70.26
78366;HTU21D;67641;59.864;30.464;2023-12-14T04:58:11;13.26;70.48
78366;HTU21D;67641;59.864;30.464;2023-12-14T05:00:37;13.25;70.30
78366;HTU21D;67641;59.864;30.464;2023-12-14T05:03:04;13.25;70.09
78366;HTU21D;67641;59.864;30.464;2023-12-14T05:05:30;13.32;70.13
78366;HTU21D;67641;59.864;30.464;2023-12-14T05:07:57;13.32;69.33
78366;HTU21D;67641;59.864;30.464;2023-12-14T05:10:24;13.35;69.43
78366;HTU21D;67641;59.864;30.464;2023-12-14T05:12:50;13.39;69.10
78366;HTU21D;67641;59.864;30.464;2023-12-14T05:15:17;13.44;68.58
78366;HTU21D;67641;59.864;30.464;2023-12-14T05:17:45;13.50;68.55
78366;HTU21D;67641;59.864;30.464;2023-12-14T05:20:12;13.56;68.66
78366;HTU21D;67641;59.864;30.464;2023-12-14T05:22:38;13.63;68.43
78366;HTU21D;67641;59.864;30.464;2023-12-14T05:25:05;13.74;68.12
78366;HTU21D;67641;59.864;30.464;2023-12-14T05:27:32;13.82;67.25
78366;HTU21D;67641;59.864;30.464;2023-12-14T05:29:58;13.97;67.05
78366;HTU21D;67641;59.864;30.464;2023-12-14T05:32:25;14.08;66.64
78366;HTU21D;67641;59.864;30.464;2023-12-14T05:34:52;14.52;65.76
78366;HTU21D;67641;59.864;30.464;2023-12-14T05:37:18;15.24;63.99
78366;HTU21D;67641;59.864;30.464;2023-12-14T05:39:45;16.02;61.96
78366;HTU21D;67641;59.864;30.464;2023-12-14T05:42:11;16.84;59.81
78366;HTU21D;67641;59.864;30.464;2023-12-14T05:44:38;17.49;57.58
78366;HTU21D;67641;59.864;30.464;2023-12-14T05:47:05;18.17;56.12
78366;HTU21D;67641;59.864;30.464;2023-12-14T05:49:31;18.82;54.10
78366;HTU21D;67641;59.864;30.464;2023-12-14T05:51:59;19.33;52.62
78366;HTU21D;67641;59.864;30.464;2023-12-14T05:54:26;20.06;50.88
78366;HTU21D;67641;59.864;30.464;2023-12-14T05:56:52;20.59;49.16
78366;HTU21D;67641;59.864;30.464;2023-12-14T05:59:19;21.05;48.28
78366;HTU21D;67641;59.864;30.464;2023-12-14T06:01:45;21.74;46.54
78366;HTU21D;67641;59.864;30.464;2023-12-14T06:04:12;22.37;45.06
78366;HTU21D;67641;59.864;30.464;2023-12-14T06:06:38;22.90;43.89
78366;HTU21D;67641;59.864;30.464;2023-12-14T06:09:06;23.40;42.60
78366;HTU21D;67641;59.864;30.464;2023-12-14T06:11:33;23.88;41.04
78366;HTU21D;67641;59.864;30.464;2023-12-14T06:14:00;24.05;40.52
78366;HTU21D;67641;59.864;30.464;2023-12-14T06:16:27;24.27;39.70
78366;HTU21D;67641;59.864;30.464;2023-12-14T06:18:53;24.74;39.17
78366;HTU21D;67641;59.864;30.464;2023-12-14T06:21:20;25.15;37.87
78366;HTU21D;67641;59.864;30.464;2023-12-14T06:23:47;25.44;36.63
78366;HTU21D;67641;59.864;30.464;2023-12-14T06:26:13;25.68;35.82
78366;HTU21D;67641;59.864;30.464;2023-12-14T06:28:40;26.05;35.09
78366;HTU21D;67641;59.864;30.464;2023-12-14T06:31:12;26.36;34.37
78366;HTU21D;67641;59.864;30.464;2023-12-14T06:33:39;26.67;33.97
78366;HTU21D;67641;59.864;30.464;2023-12-14T06:36:09;26.89;33.83
78366;HTU21D;67641;59.864;30.464;2023-12-14T06:38:39;27.19;33.54
78366;HTU21D;67641;59.864;30.464;2023-12-14T06:41:06;27.54;33.05
78366;HTU21D;67641;59.864;30.464;2023-12-14T06:43:33;27.95;32.57
78366;HTU21D;67641;59.864;30.464;2023-12-14T06:46:00;27.95;33.08
78366;HTU21D;67641;59.864;30.464;2023-12-14T06:48:26;27.76;33.49
78366;HTU21D;67641;59.864;30.464;2023-12-14T06:50:53;27.75;34.02
78366;HTU21D;67641;59.864;30.464;2023-12-14T06:53:21;27.73;34.41
78366;HTU21D;67641;59.864;30.464;2023-12-14T06:55:47;27.53;34.99
78366;HTU21D;67641;59.864;30.464;2023-12-14T06:58:14;27.08;35.86
78366;HTU21D;67641;59.864;30.464;2023-12-14T07:00:40;26.66;36.64
78366;HTU21D;67641;59.864;30.464;2023-12-14T07:03:07;26.47;36.87
78366;HTU21D;67641;59.864;30.464;2023-12-14T07:05:33;26.23;37.33
78366;HTU21D;67641;59.864;30.464;2023-12-14T07:08:00;26.09;37.84
78366;HTU21D;67641;59.864;30.464;2023-12-14T07:10:27;25.91;38.32
78366;HTU21D;67641;59.864;30.464;2023-12-14T07:12:53;26.02;38.62
78366;HTU21D;67641;59.864;30.464;2023-12-14T07:15:20;26.22;39.04
78366;HTU21D;67641;59.864;30.464;2023-12-14T07:17:47;26.47;38.98
78366;HTU21D;67641;59.864;30.464;2023-12-14T07:20:13;26.68;39.36
78366;HTU21D;67641;59.864;30.464;2023-12-14T07:22:40;27.14;38.79
78366;HTU21D;67641;59.864;30.464;2023-12-14T07:25:07;27.15;39.17
78366;HTU21D;67641;59.864;30.464;2023-12-14T07:27:34;27.11;39.23
78366;HTU21D;67641;59.864;30.464;2023-12-14T07:30:01;27.11;39.98
78366;HTU21D;67641;59.864;30.464;2023-12-14T07:32:27;26.98;40.59
78366;HTU21D;67641;59.864;30.464;2023-12-14T07:34:54;26.67;41.73
78366;HTU21D;67641;59.864;30.464;2023-12-14T07:37:21;26.51;42.93
78366;HTU21D;67641;59.864;30.464;2023-12-14T07:39:47;26.82;42.56
78366;HTU21D;67641;59.864;30.464;2023-12-14T07:42:14;27.13;42.11
78366;HTU21D;67641;59.864;30.464;2023-12-14T07:44:46;27.29;42.16
78366;HTU21D;67641;59.864;30.464;2023-12-14T07:47:12;26.85;43.65
78366;HTU21D;67641;59.864;30.464;2023-12-14T07:49:39;26.77;44.30
78366;HTU21D;67641;59.864;30.464;2023-12-14T07:52:06;26.53;44.99
78366;HTU21D;67641;59.864;30.464;2023-12-14T07:54:33;26.49;45.22
78366;HTU21D;67641;59.864;30.464;2023-12-14T07:56:59;26.15;46.40
78366;HTU21D;67641;59.864;30.464;2023-12-14T07:59:26;26.08;47.01
78366;HTU21D;67641;59.864;30.464;2023-12-14T08:01:52;25.89;47.40
78366;HTU21D;67641;59.864;30.464;2023-12-14T08:04:19;25.84;47.59
78366;HTU21D;67641;59.864;30.464;2023-12-14T08:06:45;26.06;46.96
78366;HTU21D;67641;59.864;30.464;2023-12-14T08:09:12;25.71;47.83
78366;HTU21D;67641;59.864;30.464;2023-12-14T08:11:39;25.42;48.16
78366;HTU21D;67641;59.864;30.464;2023-12-14T08:14:05;25.30;48.63
78366;HTU21D;67641;59.864;30.464;2023-12-14T08:16:32;24.98;49.79
78366;HTU21D;67641;59.864;30.464;2023-12-14T08:18:59;25.06;49.92
78366;HTU21D;67641;59.864;30.464;2023-12-14T08:21:25;24.87;50.36
78366;HTU21D;67641;59.864;30.464;2023-12-14T08:23:52;24.50;51.20
78366;HTU21D;67641;59.864;30.464;2023-12-14T08:26:18;24.33;51.79
78366;HTU21D;67641;59.864;30.464;2023-12-14T08:28:45;24.49;51.49
78366;HTU21D;67641;59.864;30.464;2023-12-14T08:31:11;24.35;52.14
78366;HTU21D;67641;59.864;30.464;2023-12-14T08:33:41;24.43;52.17
78366;HTU21D;67641;59.864;30.464;2023-12-14T08:36:08;24.65;51.86
78366;HTU21D;67641;59.864;30.464;2023-12-14T08:38:34;24.80;51.42
78366;HTU21D;67641;59.864;30.464;2023-12-14T08:41:01;25.01;50.78
78366;HTU21D;67641;59.864;30.464;2023-12-14T08:43:27;25.46;49.78
78366;HTU21D;67641;59.864;30.464;2023-12-14T08:45:54;25.33;49.73
78366;HTU21D;67641;59.864;30.464;2023-12-14T08:48:21;25.58;48.79
78366;HTU21D;67641;59.864;30.464;2023-12-14T08:50:47;25.83;47.99
78366;HTU21D;67641;59.864;30.464;2023-12-14T08:53:14;25.91;47.60
78366;HTU21D;67641;59.864;30.464;2023-12-14T08:55:41;26.06;47.21
78366;HTU21D;67641;59.864;30.464;2023-12-14T08:58:07;26.18;46.74
78366;HTU21D;67641;59.864;30.464;2023-12-14T09:00:34;26.11;47.00
78366;HTU21D;67641;59.864;30.464;2023-12-14T09:03:00;26.51;45.62
78366;HTU21D;67641;59.864;30.464;2023-12-14T09:05:27;26.23;46.12
78366;HTU21D;67641;59.864;30.464;2023-12-14T09:07:53;26.17;46.02
78366;HTU21D;67641;59.864;30.464;2023-12-14T09:10:22;26.25;45.85
78366;HTU21D;67641;59.864;30.464;2023-12-14T09:12:49;26.27;45.92
78366;HTU21D;67641;59.864;30.464;2023-12-14T09:15:15;26.60;44.80
78366;HTU21D;67641;59.864;30.464;2023-12-14T09:17:49;26.63;44.76
78366;HTU21D;67641;59.864;30.464;2023-12-14T09:20:20;26.54;45.03
78366;HTU21D;67641;59.864;30.464;2023-12-14T09:22:46;26.40;45.46
78366;HTU21D;67641;59.864;30.464;2023-12-14T09:25:13;26.27;45.98
78366;HTU21D;67641;59.864;30.464;2023-12-14T09:27:40;26.28;46.02
78366;HTU21D;67641;59.864;30.464;2023-12-14T09:30:07;26.79;44.87
78366;HTU21D;67641;59.864;30.464;2023-12-14T09:32:34;26.70;45.17
78366;HTU21D;67641;59.864;30.464;2023-12-14T09:35:00;26.61;45.26
78366;HTU21D;67641;59.864;30.464;2023-12-14T09:37:27;26.83;44.96
78366;HTU21D;67641;59.864;30.464;2023-12-14T09:39:53;26.90;44.87
78366;HTU21D;67641;59.864;30.464;2023-12-14T09:42:20;27.32;44.02
78366;HTU21D;67641;59.864;30.464;2023-12-14T09:44:48;27.08;44.55
78366;HTU21D;67641;59.864;30.464;2023-12-14T09:47:16;27.14;44.59
78366;HTU21D;67641;59.864;30.464;2023-12-14T09:49:43;27.14;44.67
78366;HTU21D;67641;59.864;30.464;2023-12-14T09:52:12;27.86;43.05
78366;HTU21D;67641;59.864;30.464;2023-12-14T09:54:39;28.31;42.01
78366;HTU21D;67641;59.864;30.464;2023-12-14T09:57:06;28.05;42.13
78366;HTU21D;67641;59.864;30.464;2023-12-14T09:59:32;27.93;42.31
78366;HTU21D;67641;59.864;30.464;2023-12-14T10:02:09;27.96;42.24
78366;HTU21D;67641;59.864;30.464;2023-12-14T10:04:37;27.66;43.09
78366;HTU21D;67641;59.864;30.464;2023-12-14T10:07:04;27.53;43.05
78366;HTU21D;67641;59.864;30.464;2023-12-14T10:09:34;27.64;42.81
78366;HTU21D;67641;59.864;30.464;2023-12-14T10:12:07;27.51;43.00
78366;HTU21D;67641;59.864;30.464;2023-12-14T10:14:35;27.84;42.33
78366;HTU21D;67641;59.864;30.464;2023-12-14T10:17:21;27.41;43.08
78366;HTU21D;67641;59.864;30.464;2023-12-14T10:19:48;27.23;43.68
78366;HTU21D;67641;59.864;30.464;2023-12-14T10:22:16;27.37;43.73
78366;HTU21D;67641;59.864;30.464;2023-12-14T10:24:44;27.35;44.05
78366;HTU21D;67641;59.864;30.464;2023-12-14T10:27:10;27.09;44.74
78366;HTU21D;67641;59.864;30.464;2023-12-14T10:29:37;27.39;44.42
78366;HTU21D;67641;59.864;30.464;2023-12-14T10:32:06;27.41;43.96
78366;HTU21D;67641;59.864;30.464;2023-12-14T10:34:33;27.24;43.90
78366;HTU21D;67641;59.864;30.464;2023-12-14T10:37:00;27.05;44.40
78366;HTU21D;67641;59.864;30.464;2023-12-14T10:39:29;27.23;44.28
78366;HTU21D;67641;59.864;30.464;2023-12-14T10:41:55;27.44;44.08
78366;HTU21D;67641;59.864;30.464;2023-12-14T10:44:26;27.91;43.22
78366;HTU21D;67641;59.864;30.464;2023-12-14T10:46:57;27.86;43.44
78366;HTU21D;67641;59.864;30.464;2023-12-14T10:49:25;27.81;43.43
78366;HTU21D;67641;59.864;30.464;2023-12-14T10:51:53;27.63;43.80
78366;HTU21D;67641;59.864;30.464;2023-12-14T10:54:21;27.66;43.84
78366;HTU21D;67641;59.864;30.464;2023-12-14T10:56:49;27.76;43.80
78366;HTU21D;67641;59.864;30.464;2023-12-14T10:59:15;27.82;43.71
78366;HTU21D;67641;59.864;30.464;2023-12-14T11:01:44;27.72;44.04
78366;HTU21D;67641;59.864;30.464;2023-12-14T11:04:11;27.44;44.67
78366;HTU21D;67641;59.864;30.464;2023-12-14T11:06:40;27.54;45.03
78366;HTU21D;67641;59.864;30.464;2023-12-14T11:09:09;27.72;44.47
78366;HTU21D;67641;59.864;30.464;2023-12-14T11:11:47;28.04;44.05
78366;HTU21D;67641;59.864;30.464;2023-12-14T11:14:24;27.93;44.42
78366;HTU21D;67641;59.864;30.464;2023-12-14T11:16:54;27.53;45.61
78366;HTU21D;67641;59.864;30.464;2023-12-14T11:19:24;27.27;46.06
78366;HTU21D;67641;59.864;30.464;2023-12-14T11:24:23;26.85;47.27
78366;HTU21D;67641;59.864;30.464;2023-12-14T11:26:50;26.95;47.26
78366;HTU21D;67641;59.864;30.464;2023-12-14T11:29:19;27.11;47.11
78366;HTU21D;67641;59.864;30.464;2023-12-14T11:31:46;26.93;47.52
78366;HTU21D;67641;59.864;30.464;2023-12-14T11:34:14;26.57;48.73
78366;HTU21D;67641;59.864;30.464;2023-12-14T11:36:41;26.56;48.57
78366;HTU21D;67641;59.864;30.464;2023-12-14T11:39:09;26.39;48.92
78366;HTU21D;67641;59.864;30.464;2023-12-14T11:41:35;26.23;49.38
78366;HTU21D;67641;59.864;30.464;2023-12-14T11:44:04;26.06;50.25
78366;HTU21D;67641;59.864;30.464;2023-12-14T11:46:30;26.31;49.96
78366;HTU21D;67641;59.864;30.464;2023-12-14T11:48:57;26.66;49.15
78366;HTU21D;67641;59.864;30.464;2023-12-14T11:51:24;27.34;47.43
78366;HTU21D;67641;59.864;30.464;2023-12-14T11:53:55;27.78;46.35
78366;HTU21D;67641;59.864;30.464;2023-12-14T11:56:21;27.89;45.93
78366;HTU21D;67641;59.864;30.464;2023-12-14T11:58:51;28.03;45.32
78366;HTU21D;67641;59.864;30.464;2023-12-14T12:01:20;27.73;45.58
78366;HTU21D;67641;59.864;30.464;2023-12-14T12:03:51;27.91;45.37
78366;HTU21D;67641;59.864;30.464;2023-12-14T12:06:24;28.44;44.29
78366;HTU21D;67641;59.864;30.464;2023-12-14T12:08:51;28.44;43.92
78366;HTU21D;67641;59.864;30.464;2023-12-14T12:11:21;28.54;43.71
78366;HTU21D;67641;59.864;30.464;2023-12-14T12:13:52;28.70;43.25
78366;HTU21D;67641;59.864;30.464;2023-12-14T12:16:18;28.05;44.96
78366;HTU21D;67641;59.864;30.464;2023-12-14T12:18:44;27.54;46.27
78366;HTU21D;67641;59.864;30.464;2023-12-14T12:21:11;27.22;47.13
78366;HTU21D;67641;59.864;30.464;2023-12-14T12:23:38;26.97;47.83
78366;HTU21D;67641;59.864;30.464;2023-12-14T12:26:04;26.62;48.99
78366;HTU21D;67641;59.864;30.464;2023-12-14T12:28:31;26.73;49.30
78366;HTU21D;67641;59.864;30.464;2023-12-14T12:30:57;26.85;49.00
78366;HTU21D;67641;59.864;30.464;2023-12-14T12:33:25;26.84;49.34
78366;HTU21D;67641;59.864;30.464;2023-12-14T12:35:52;26.87;49.38
78366;HTU21D;67641;59.864;30.464;2023-12-14T12:38:18;27.17;48.12
78366;HTU21D;67641;59.864;30.464;2023-12-14T12:40:45;27.26;47.94
78366;HTU21D;67641;59.864;30.464;2023-12-14T12:43:12;27.52;47.29
78366;HTU21D;67641;59.864;30.464;2023-12-14T12:45:38;27.50;47.48
78366;HTU21D;67641;59.864;30.464;2023-12-14T12:48:04;27.14;48.57
78366;HTU21D;67641;59.864;30.464;2023-12-14T12:50:33;26.86;49.23
78366;HTU21D;67641;59.864;30.464;2023-12-14T12:52:59;26.57;50.08
78366;HTU21D;67641;59.864;30.464;2023-12-14T12:55:25;26.17;51.31
78366;HTU21D;67641;59.864;30.464;2023-12-14T12:57:51;25.82;51.85
78366;HTU21D;67641;59.864;30.464;2023-12-14T13:00:17;25.34;53.78
78366;HTU21D;67641;59.864;30.464;2023-12-14T13:02:44;25.28;53.75
78366;HTU21D;67641;59.864;30.464;2023-12-14T13:05:11;25.05;54.87
78366;HTU21D;67641;59.864;30.464;2023-12-14T13:07:38;24.84;55.14
78366;HTU21D;67641;59.864;30.464;2023-12-14T13:10:05;24.44;57.51
78366;HTU21D;67641;59.864;30.464;2023-12-14T13:12:35;24.02;59.13
78366;HTU21D;67641;59.864;30.464;2023-12-14T13:15:01;23.68;60.47
78366;HTU21D;67641;59.864;30.464;2023-12-14T13:17:28;23.49;61.15
78366;HTU21D;67641;59.864;30.464;2023-12-14T13:19:54;23.39;61.47
78366;HTU21D;67641;59.864;30.464;2023-12-14T13:22:20;23.25;61.92
78366;HTU21D;67641;59.864;30.464;2023-12-14T13:24:46;23.09;62.60
78366;HTU21D;67641;59.864;30.464;2023-12-14T13:27:13;22.82;63.05
78366;HTU21D;67641;59.864;30.464;2023-12-14T13:29:39;22.61;64.00
78366;HTU21D;67641;59.864;30.464;2023-12-14T13:32:05;22.52;63.73
78366;HTU21D;67641;59.864;30.464;2023-12-14T13:34:31;22.52;63.99
78366;HTU21D;67641;59.864;30.464;2023-12-14T13:36:59;22.64;63.76
78366;HTU21D;67641;59.864;30.464;2023-12-14T13:39:26;22.64;64.25
78366;HTU21D;67641;59.864;30.464;2023-12-14T13:41:53;22.58;63.87
78366;HTU21D;67641;59.864;30.464;2023-12-14T13:44:19;22.42;65.77
78366;HTU21D;67641;59.864;30.464;2023-12-14T13:46:45;22.54;65.11
78366;HTU21D;67641;59.864;30.464;2023-12-14T13:49:11;22.72;64.55
78366;HTU21D;67641;59.864;30.464;2023-12-14T13:51:37;22.57;65.50
78366;HTU21D;67641;59.864;30.464;2023-12-14T13:54:04;22.49;65.37
78366;HTU21D;67641;59.864;30.464;2023-12-14T13:56:30;22.34;66.57
78366;HTU21D;67641;59.864;30.464;2023-12-14T13:58:56;22.40;66.09
78366;HTU21D;67641;59.864;30.464;2023-12-14T14:01:22;22.18;66.14
78366;HTU21D;67641;59.864;30.464;2023-12-14T14:03:49;21.88;67.68
78366;HTU21D;67641;59.864;30.464;2023-12-14T14:06:15;21.77;67.72
78366;HTU21D;67641;59.864;30.464;2023-12-14T14:08:41;21.73;67.73
78366;HTU21D;67641;59.864;30.464;2023-12-14T14:11:07;21.47;69.00
78366;HTU21D;67641;59.864;30.464;2023-12-14T14:13:33;21.27;70.33
78366;HTU21D;67641;59.864;30.464;2023-12-14T14:15:59;21.16;70.64
78366;HTU21D;67641;59.864;30.464;2023-12-14T14:18:25;21.04;71.34
78366;HTU21D;67641;59.864;30.464;2023-12-14T14:20:52;20.98;70.92
78366;HTU21D;67641;59.864;30.464;2023-12-14T14:23:18;20.86;71.93
78366;HTU21D;67641;59.864;30.464;2023-12-14T14:25:45;20.78;71.56
78366;HTU21D;67641;59.864;30.464;2023-12-14T14:28:11;20.69;72.72
78366;HTU21D;67641;59.864;30.464;2023-12-14T14:30:37;20.59;72.77
78366;HTU21D;67641;59.864;30.464;2023-12-14T14:33:03;20.53;74.02
78366;HTU21D;67641;59.864;30.464;2023-12-14T14:35:29;20.49;74.30
78366;HTU21D;67641;59.864;30.464;2023-12-14T14:37:58;20.46;74.32
78366;HTU21D;67641;59.864;30.464;2023-12-14T14:40:24;20.40;73.90
78366;HTU21D;67641;59.864;30.464;2023-12-14T14:42:50;20.31;75.31
78366;HTU21D;67641;59.864;30.464;2023-12-14T14:45:16;20.26;75.32
78366;HTU21D;67641;59.864;30.464;2023-12-14T14:47:42;20.28;75.68
78366;HTU21D;67641;59.864;30.464;2023-12-14T14:50:09;20.24;74.75
78366;HTU21D;67641;59.864;30.464;2023-12-14T14:52:35;20.25;75.18
78366;HTU21D;67641;59.864;30.464;2023-12-14T14:55:01;20.21;75.63
78366;HTU21D;67641;59.864;30.464;2023-12-14T14:57:28;20.22;75.45
78366;HTU21D;67641;59.864;30.464;2023-12-14T14:59:54;20.18;75.58
78366;HTU21D;67641;59.864;30.464;2023-12-14T15:02:20;20.18;75.72
78366;HTU21D;67641;59.864;30.464;2023-12-14T15:04:47;20.19;75.60